Front Ariake — C6RX9 — position and weather

sailwx.info

Track history (hours):
 
Tides and Currents Weather Stations Pressure Air Temp Water Temp Dewpoint Dewpoint Depression Visibility Wind Speed Wind Dir Waves Ship Positions

Front Ariake

Last reported at 2016-Aug-26 16:33 UTC. Time now 2016-Aug-26 17:30 UTC.
Position N 52°19' E 002°11'.

Length 333 m; draft 11 m.

Type: Tanker. MMSI: 311226956.

Date/timePositionNaut miles runAvg speedWind from/ knotsBaromVisibWave heightAir tempDewpointWater temp
2016-Aug-26 16:33N 52°19' E 002°11'8 8.4
2016-Aug-26 15:33N 52°20' E 002°25'8 7.6
2016-Aug-26 14:33N 52°23' E 002°37'11 9.4
2016-Aug-26 13:26N 52°34' E 002°37'1511.6
2016-Aug-26 12:09N 52°48' E 002°38'17 9.9
2016-Aug-26 10:24N 52°31' E 002°42'1113.1
2016-Aug-26 09:33N 52°20' E 002°43'1212.1
2016-Aug-26 08:33N 52°17' E 002°24'10 9.3
2016-Aug-26 07:30N 52°20' E 002°09'2 0.5
2016-Aug-26 03:33N 52°21' E 002°05'0 0.0
2016-Aug-26 00:27N 52°21' E 002°05'0 0.3
2016-Aug-25 23:21N 52°21' E 002°05'0 0.1
2016-Aug-25 22:22N 52°21' E 002°05'0 0.0
2016-Aug-25 21:30N 52°21' E 002°05'0 0.0
2016-Aug-25 20:33N 52°21' E 002°05'0 0.0
2016-Aug-25 19:33N 52°21' E 002°05'0 0.0
2016-Aug-25 18:33N 52°21' E 002°05'0 0.2
2016-Aug-25 17:33N 52°21' E 002°05'0 0.2
2016-Aug-25 16:30N 52°21' E 002°05'0 0.0
2016-Aug-25 13:24N 52°21' E 002°05'0 0.0
2016-Aug-25 12:12N 52°21' E 002°05'0 0.1
2016-Aug-25 10:33N 52°21' E 002°06'0 0.3
2016-Aug-25 09:33N 52°21' E 002°05'0 0.0
2016-Aug-25 08:33N 52°21' E 002°05'0 0.1
2016-Aug-25 04:33N 52°21' E 002°05'0 0.1
2016-Aug-25 03:33N 52°21' E 002°05'0 0.0
2016-Aug-25 02:33N 52°21' E 002°05'0 0.0
2016-Aug-25 01:33N 52°21' E 002°05'0 0.0
2016-Aug-25 00:33N 52°21' E 002°05'0 0.0
2016-Aug-24 23:33N 52°21' E 002°05'0 0.2
2016-Aug-24 22:13N 52°21' E 002°06'0 0.3
2016-Aug-24 21:30N 52°21' E 002°05'0 0.0
2016-Aug-24 20:27N 52°21' E 002°05'0 0.1
2016-Aug-24 14:09N 52°21' E 002°05'0 0.0
2016-Aug-24 12:33N 52°21' E 002°05'0 0.0
2016-Aug-24 11:15N 52°21' E 002°05'0 0.1
2016-Aug-24 08:18N 52°21' E 002°05'0 0.0
2016-Aug-24 07:15N 52°21' E 002°05'0 0.0
2016-Aug-24 06:27N 52°21' E 002°05'0 0.0
2016-Aug-24 04:33N 52°21' E 002°05'0 0.3
2016-Aug-24 03:33N 52°21' E 002°05'0 0.2
2016-Aug-24 02:33N 52°21' E 002°05'0 0.0
2016-Aug-24 01:30N 52°21' E 002°05'0 0.0
2016-Aug-24 00:33N 52°21' E 002°05'0 0.0
2016-Aug-23 23:33N 52°21' E 002°05'0 0.0
2016-Aug-23 22:27N 52°21' E 002°05'0 0.2
2016-Aug-23 20:15N 52°21' E 002°05'0 0.0
2016-Aug-23 19:30N 52°21' E 002°05'0 0.0
2016-Aug-23 18:18N 52°21' E 002°05'0 0.1
2016-Aug-23 14:24N 52°21' E 002°05'0 0.0
2016-Aug-23 13:33N 52°21' E 002°05'0 0.0
2016-Aug-23 12:33N 52°21' E 002°05'0 0.0
2016-Aug-23 11:33N 52°21' E 002°05'0 0.0
2016-Aug-23 10:33N 52°21' E 002°05'0 0.2
2016-Aug-23 09:33N 52°21' E 002°05'0 0.3
2016-Aug-23 08:33N 52°21' E 002°05'0 0.0
2016-Aug-23 07:09N 52°21' E 002°05'0 0.0
2016-Aug-23 04:27N 52°21' E 002°05'0 0.3
2016-Aug-23 03:06N 52°21' E 002°05'0 0.1
2016-Aug-23 02:27N 52°21' E 002°05'0 0.0
2016-Aug-22 16:15N 52°21' E 002°05'0 0.1
2016-Aug-22 10:33N 52°21' E 002°05'0 0.0
2016-Aug-22 09:21N 52°21' E 002°05'0 0.3
2016-Aug-22 08:21N 52°21' E 002°06'  
2016-Aug-19 12:30N 52°22' E 002°05'0 0.2
2016-Aug-19 11:09N 52°21' E 002°05'0 0.0
2016-Aug-19 10:33N 52°21' E 002°05'0 0.0
2016-Aug-19 09:33N 52°21' E 002°05'0 0.0
2016-Aug-19 08:30N 52°21' E 002°05'0 0.0
2016-Aug-19 07:30N 52°21' E 002°05'0 0.2
2016-Aug-19 06:12N 52°22' E 002°05'0 0.1
2016-Aug-19 04:21N 52°22' E 002°05'0 0.0
2016-Aug-19 01:27N 52°22' E 002°05'0 0.2
2016-Aug-18 23:33N 52°21' E 002°05'0 0.0
2016-Aug-18 21:15N 52°21' E 002°05'0 0.0
2016-Aug-18 20:18N 52°21' E 002°05'0 0.0
2016-Aug-18 19:33N 52°21' E 002°05'0 0.2
2016-Aug-18 17:24N 52°22' E 002°05'0 0.1
2016-Aug-18 16:21N 52°22' E 002°05'0 0.0
2016-Aug-18 15:30N 52°22' E 002°05'0 0.0
2016-Aug-18 14:21N 52°22' E 002°05'0 0.0
2016-Aug-18 13:15N 52°22' E 002°05'0 0.1
2016-Aug-18 12:33N 52°22' E 002°05'0 0.3
2016-Aug-18 11:30N 52°22' E 002°05'0 0.0
2016-Aug-18 08:30N 52°21' E 002°05'0 0.0
2016-Aug-18 07:24N 52°21' E 002°05'0 0.0
2016-Aug-18 06:30N 52°21' E 002°05'0 0.3
2016-Aug-18 05:33N 52°22' E 002°05'0 0.3
2016-Aug-18 04:33N 52°22' E 002°05'0 0.0
2016-Aug-18 03:33N 52°22' E 002°05'0 0.0
2016-Aug-18 02:30N 52°22' E 002°05'0 0.0
2016-Aug-18 01:30N 52°22' E 002°05'0 0.0
2016-Aug-18 00:33N 52°22' E 002°05'0 0.3
2016-Aug-17 23:30N 52°22' E 002°05'0 0.2
2016-Aug-17 22:33N 52°21' E 002°05'0 0.0
2016-Aug-17 21:33N 52°21' E 002°05'0 0.0
2016-Aug-17 20:30N 52°21' E 002°05'0 0.0
2016-Aug-17 19:30N 52°21' E 002°05'0 0.0
2016-Aug-17 18:33N 52°21' E 002°05'0 0.1
2016-Aug-17 17:33N 52°21' E 002°05'0 0.4
2016-Aug-17 16:33N 52°22' E 002°05'0 0.0
2016-Aug-17 15:33N 52°22' E 002°05'0 0.0
2016-Aug-17 14:33N 52°22' E 002°05'0 0.1
2016-Aug-17 08:07N 52°21' E 002°05'0 0.1
2016-Aug-17 02:28N 52°22' E 002°05'4 0.7
2016-Aug-16 21:29N 52°18' E 002°08'1512.5
2016-Aug-16 20:15N 52°17' E 002°32'912.9
2016-Aug-16 19:33N 52°26' E 002°36'1813.7
2016-Aug-16 18:16N 52°44' E 002°35'  
Track history (hours):
 
Tides and Currents Weather Stations Pressure Air Temp Water Temp Dewpoint Dewpoint Depression Visibility Wind Speed Wind Dir Waves Ship Positions

Front Ariake

Last reported at 2016-Aug-26 16:33 UTC. Time now 2016-Aug-26 17:30 UTC.
Position N 52°19' E 002°11'.

Length 333 m; draft 11 m.

Type: Tanker. MMSI: 311226956.

Date/timePositionNaut miles runAvg speedWind from/ knotsBaromVisibWave heightAir tempDewpointWater temp
2016-Aug-26 16:33N 52°19' E 002°11'8 8.4
2016-Aug-26 15:33N 52°20' E 002°25'8 7.6
2016-Aug-26 14:33N 52°23' E 002°37'11 9.4
2016-Aug-26 13:26N 52°34' E 002°37'1511.6
2016-Aug-26 12:09N 52°48' E 002°38'17 9.9
2016-Aug-26 10:24N 52°31' E 002°42'1113.1
2016-Aug-26 09:33N 52°20' E 002°43'1212.1
2016-Aug-26 08:33N 52°17' E 002°24'10 9.3
2016-Aug-26 07:30N 52°20' E 002°09'2 0.5
2016-Aug-26 03:33N 52°21' E 002°05'0 0.0
2016-Aug-26 00:27N 52°21' E 002°05'0 0.3
2016-Aug-25 23:21N 52°21' E 002°05'0 0.1
2016-Aug-25 22:22N 52°21' E 002°05'0 0.0
2016-Aug-25 21:30N 52°21' E 002°05'0 0.0
2016-Aug-25 20:33N 52°21' E 002°05'0 0.0
2016-Aug-25 19:33N 52°21' E 002°05'0 0.0
2016-Aug-25 18:33N 52°21' E 002°05'0 0.2
2016-Aug-25 17:33N 52°21' E 002°05'0 0.2
2016-Aug-25 16:30N 52°21' E 002°05'0 0.0
2016-Aug-25 13:24N 52°21' E 002°05'0 0.0
2016-Aug-25 12:12N 52°21' E 002°05'0 0.1
2016-Aug-25 10:33N 52°21' E 002°06'0 0.3
2016-Aug-25 09:33N 52°21' E 002°05'0 0.0
2016-Aug-25 08:33N 52°21' E 002°05'0 0.1
2016-Aug-25 04:33N 52°21' E 002°05'0 0.1
2016-Aug-25 03:33N 52°21' E 002°05'0 0.0
2016-Aug-25 02:33N 52°21' E 002°05'0 0.0
2016-Aug-25 01:33N 52°21' E 002°05'0 0.0
2016-Aug-25 00:33N 52°21' E 002°05'0 0.0
2016-Aug-24 23:33N 52°21' E 002°05'0 0.2
2016-Aug-24 22:13N 52°21' E 002°06'0 0.3
2016-Aug-24 21:30N 52°21' E 002°05'0 0.0
2016-Aug-24 20:27N 52°21' E 002°05'0 0.1
2016-Aug-24 14:09N 52°21' E 002°05'0 0.0
2016-Aug-24 12:33N 52°21' E 002°05'0 0.0
2016-Aug-24 11:15N 52°21' E 002°05'0 0.1
2016-Aug-24 08:18N 52°21' E 002°05'0 0.0
2016-Aug-24 07:15N 52°21' E 002°05'0 0.0
2016-Aug-24 06:27N 52°21' E 002°05'0 0.0
2016-Aug-24 04:33N 52°21' E 002°05'0 0.3
2016-Aug-24 03:33N 52°21' E 002°05'0 0.2
2016-Aug-24 02:33N 52°21' E 002°05'0 0.0
2016-Aug-24 01:30N 52°21' E 002°05'0 0.0
2016-Aug-24 00:33N 52°21' E 002°05'0 0.0
2016-Aug-23 23:33N 52°21' E 002°05'0 0.0
2016-Aug-23 22:27N 52°21' E 002°05'0 0.2
2016-Aug-23 20:15N 52°21' E 002°05'0 0.0
2016-Aug-23 19:30N 52°21' E 002°05'0 0.0
2016-Aug-23 18:18N 52°21' E 002°05'0 0.1
2016-Aug-23 14:24N 52°21' E 002°05'0 0.0
2016-Aug-23 13:33N 52°21' E 002°05'0 0.0
2016-Aug-23 12:33N 52°21' E 002°05'0 0.0
2016-Aug-23 11:33N 52°21' E 002°05'0 0.0
2016-Aug-23 10:33N 52°21' E 002°05'0 0.2
2016-Aug-23 09:33N 52°21' E 002°05'0 0.3
2016-Aug-23 08:33N 52°21' E 002°05'0 0.0
2016-Aug-23 07:09N 52°21' E 002°05'0 0.0
2016-Aug-23 04:27N 52°21' E 002°05'0 0.3
2016-Aug-23 03:06N 52°21' E 002°05'0 0.1
2016-Aug-23 02:27N 52°21' E 002°05'0 0.0
2016-Aug-22 16:15N 52°21' E 002°05'0 0.1
2016-Aug-22 10:33N 52°21' E 002°05'0 0.0
2016-Aug-22 09:21N 52°21' E 002°05'0 0.3
2016-Aug-22 08:21N 52°21' E 002°06'  
2016-Aug-19 12:30N 52°22' E 002°05'0 0.2
2016-Aug-19 11:09N 52°21' E 002°05'0 0.0
2016-Aug-19 10:33N 52°21' E 002°05'0 0.0
2016-Aug-19 09:33N 52°21' E 002°05'0 0.0
2016-Aug-19 08:30N 52°21' E 002°05'0 0.0
2016-Aug-19 07:30N 52°21' E 002°05'0 0.2
2016-Aug-19 06:12N 52°22' E 002°05'0 0.1
2016-Aug-19 04:21N 52°22' E 002°05'0 0.0
2016-Aug-19 01:27N 52°22' E 002°05'0 0.2
2016-Aug-18 23:33N 52°21' E 002°05'0 0.0
2016-Aug-18 21:15N 52°21' E 002°05'0 0.0
2016-Aug-18 20:18N 52°21' E 002°05'0 0.0
2016-Aug-18 19:33N 52°21' E 002°05'0 0.2
2016-Aug-18 17:24N 52°22' E 002°05'0 0.1
2016-Aug-18 16:21N 52°22' E 002°05'0 0.0
2016-Aug-18 15:30N 52°22' E 002°05'0 0.0
2016-Aug-18 14:21N 52°22' E 002°05'0 0.0
2016-Aug-18 13:15N 52°22' E 002°05'0 0.1
2016-Aug-18 12:33N 52°22' E 002°05'0 0.3
2016-Aug-18 11:30N 52°22' E 002°05'0 0.0
2016-Aug-18 08:30N 52°21' E 002°05'0 0.0
2016-Aug-18 07:24N 52°21' E 002°05'0 0.0
2016-Aug-18 06:30N 52°21' E 002°05'0 0.3
2016-Aug-18 05:33N 52°22' E 002°05'0 0.3
2016-Aug-18 04:33N 52°22' E 002°05'0 0.0
2016-Aug-18 03:33N 52°22' E 002°05'0 0.0
2016-Aug-18 02:30N 52°22' E 002°05'0 0.0
2016-Aug-18 01:30N 52°22' E 002°05'0 0.0
2016-Aug-18 00:33N 52°22' E 002°05'0 0.3
2016-Aug-17 23:30N 52°22' E 002°05'0 0.2
2016-Aug-17 22:33N 52°21' E 002°05'0 0.0
2016-Aug-17 21:33N 52°21' E 002°05'0 0.0
2016-Aug-17 20:30N 52°21' E 002°05'0 0.0
2016-Aug-17 19:30N 52°21' E 002°05'0 0.0
2016-Aug-17 18:33N 52°21' E 002°05'0 0.1
2016-Aug-17 17:33N 52°21' E 002°05'0 0.4
2016-Aug-17 16:33N 52°22' E 002°05'0 0.0
2016-Aug-17 15:33N 52°22' E 002°05'0 0.0
2016-Aug-17 14:33N 52°22' E 002°05'0 0.1
2016-Aug-17 08:07N 52°21' E 002°05'0 0.1
2016-Aug-17 02:28N 52°22' E 002°05'4 0.7
2016-Aug-16 21:29N 52°18' E 002°08'1512.5
2016-Aug-16 20:15N 52°17' E 002°32'912.9
2016-Aug-16 19:33N 52°26' E 002°36'1813.7
2016-Aug-16 18:16N 52°44' E 002°35'  

Dump ship's entire track history